Time;durP1;ratioP1;P1;durP2;ratioP2;P2;SDS_P1;SDS_P2;PMS_P1;PMS_P2;Temp;Humidity;BMP_temperature;BMP_pressure;BME280_temperature;BME280_humidity;BME280_pressure;Samples;Min_cycle;Max_cycle;Signal;HPM_P1;HPM_P2
2022/07/13 00:01:52;;;;;;;0.50;0.50;;;14.10;99.90;;;;;;5078429;28;20039;-80
2022/07/13 00:04:17;;;;;;;1.55;0.30;;;14.10;99.90;;;;;;5098711;28;20384;-82
2022/07/13 00:06:43;;;;;;;0.25;0.25;;;14.10;99.90;;;;;;5081036;28;20046;-82
2022/07/13 00:09:09;;;;;;;0.32;0.32;;;14.10;99.90;;;;;;5095344;28;20020;-81
2022/07/13 00:11:34;;;;;;;0.20;0.20;;;14.20;99.90;;;;;;5096529;28;20016;-81
2022/07/13 00:14:00;;;;;;;0.45;0.45;;;14.20;99.90;;;;;;5097031;28;20461;-81
2022/07/13 00:16:25;;;;;;;0.32;0.20;;;14.10;99.90;;;;;;5096678;28;20097;-82
2022/07/13 00:18:52;;;;;;;0.22;0.22;;;14.00;99.90;;;;;;5076677;28;20472;-82
2022/07/13 00:21:17;;;;;;;0.43;0.43;;;14.00;99.90;;;;;;5094359;28;20481;-81
2022/07/13 00:23:43;;;;;;;0.30;0.30;;;14.00;99.90;;;;;;5075608;28;20047;-81
2022/07/13 00:26:09;;;;;;;0.13;0.13;;;14.00;99.90;;;;;;5094407;28;20032;-81
2022/07/13 00:28:34;;;;;;;0.57;0.40;;;13.90;99.90;;;;;;5076240;28;20024;-80
2022/07/13 00:31:00;;;;;;;1.25;1.10;;;13.90;99.90;;;;;;5095137;28;20081;-81
2022/07/13 00:33:26;;;;;;;0.40;0.40;;;13.90;99.90;;;;;;5079013;28;20024;-81
2022/07/13 00:35:52;;;;;;;0.28;0.28;;;13.90;99.90;;;;;;5096741;28;20537;-81
2022/07/13 00:38:17;;;;;;;0.63;0.47;;;13.80;99.90;;;;;;5078388;28;20024;-81
2022/07/13 00:40:43;;;;;;;2.83;1.45;;;13.70;99.90;;;;;;5096765;28;20376;-81
2022/07/13 00:43:09;;;;;;;0.40;0.40;;;13.70;99.90;;;;;;5079828;28;20516;-81
2022/07/13 00:45:34;;;;;;;0.20;0.20;;;13.70;99.90;;;;;;5079976;28;20107;-81
2022/07/13 00:48:01;;;;;;;0.30;0.30;;;13.70;99.90;;;;;;5078213;28;20054;-81
2022/07/13 00:50:26;;;;;;;0.57;0.40;;;13.70;99.90;;;;;;5077193;28;20020;-81
2022/07/13 00:52:52;;;;;;;0.20;0.20;;;13.70;99.90;;;;;;5095743;28;20051;-80
2022/07/13 00:55:19;;;;;;;0.28;0.28;;;13.60;99.90;;;;;;5077358;28;20016;-81
2022/07/13 00:57:45;;;;;;;0.50;0.50;;;13.60;99.90;;;;;;5077310;28;20115;-81
2022/07/13 01:00:15;;;;;;;0.40;0.40;;;13.50;99.90;;;;;;5097908;28;20024;-80
2022/07/13 01:02:43;;;;;;;0.22;0.22;;;13.40;99.90;;;;;;5078750;28;20111;-80
2022/07/13 01:05:14;;;;;;;0.40;0.40;;;13.40;99.90;;;;;;5077956;28;20044;-80
2022/07/13 01:07:40;;;;;;;0.25;0.25;;;13.40;99.90;;;;;;5079000;28;20365;-80
2022/07/13 01:10:08;;;;;;;0.30;0.30;;;13.40;99.90;;;;;;5078805;28;20020;-81
2022/07/13 01:12:36;;;;;;;1.02;0.30;;;13.40;99.90;;;;;;5079262;28;20050;-81
2022/07/13 01:15:02;;;;;;;0.88;0.85;;;13.40;99.90;;;;;;5078266;28;20069;-80
2022/07/13 01:17:30;;;;;;;0.63;0.30;;;13.40;99.90;;;;;;5106141;28;20039;-82
2022/07/13 01:19:57;;;;;;;0.20;0.20;;;13.40;99.90;;;;;;5113388;28;20004;-80
2022/07/13 01:22:29;;;;;;;0.85;0.40;;;13.40;99.90;;;;;;5093233;28;20024;-81
2022/07/13 01:24:56;;;;;;;0.30;0.30;;;13.30;99.90;;;;;;5101626;28;20016;-83
2022/07/13 01:27:22;;;;;;;0.40;0.40;;;13.20;99.90;;;;;;5085059;28;20020;-82
2022/07/13 01:29:47;;;;;;;0.35;0.35;;;13.10;99.90;;;;;;5100919;28;20524;-83
2022/07/13 01:32:14;;;;;;;0.77;0.77;;;13.10;99.90;;;;;;5083535;28;20044;-82
2022/07/13 01:34:43;;;;;;;0.30;0.30;;;13.00;99.90;;;;;;5088017;28;20055;-81
2022/07/13 01:37:52;;;;;;;0.70;0.70;;;13.10;99.90;;;;;;5073673;28;20093;-83
2022/07/13 01:40:18;;;;;;;0.35;0.30;;;13.00;99.90;;;;;;5054509;28;20102;-83
2022/07/13 01:42:51;;;;;;;1.33;0.35;;;13.10;99.90;;;;;;5054695;28;20056;-80
2022/07/13 01:45:20;;;;;;;0.52;0.52;;;13.00;99.90;;;;;;5053266;28;20099;-82
2022/07/13 01:47:48;;;;;;;0.45;0.45;;;13.00;99.90;;;;;;5051001;28;20033;-83
2022/07/13 01:50:15;;;;;;;0.22;0.22;;;13.00;99.90;;;;;;5059206;28;20073;-83
2022/07/13 01:52:42;;;;;;;2.30;0.80;;;12.90;99.90;;;;;;5063467;28;20053;-82
2022/07/13 01:55:09;;;;;;;0.57;0.45;;;12.90;99.90;;;;;;5063931;28;20039;-83
2022/07/13 01:57:35;;;;;;;0.30;0.30;;;12.80;99.90;;;;;;5074520;28;20045;-85
2022/07/13 02:00:08;;;;;;;0.47;0.47;;;12.90;99.90;;;;;;5058919;28;20036;-84
2022/07/13 02:02:33;;;;;;;0.38;0.38;;;12.90;99.90;;;;;;5043267;28;20405;-80
2022/07/13 02:04:59;;;;;;;4.80;1.05;;;12.90;99.90;;;;;;5063566;28;20097;-81
2022/07/13 02:07:25;;;;;;;3.08;0.40;;;12.90;99.90;;;;;;5054929;28;20025;-81
2022/07/13 02:09:50;;;;;;;0.50;0.50;;;12.80;99.90;;;;;;5102914;28;20020;-80
2022/07/13 02:12:17;;;;;;;0.30;0.30;;;12.80;99.90;;;;;;5101469;28;20020;-80
2022/07/13 02:14:43;;;;;;;0.98;0.35;;;12.70;99.90;;;;;;5101999;28;20040;-80
2022/07/13 02:17:09;;;;;;;0.30;0.30;;;12.70;99.90;;;;;;5086309;28;20031;-80
2022/07/13 02:19:35;;;;;;;0.30;0.30;;;12.60;99.90;;;;;;5084077;28;20028;-82
2022/07/13 02:22:03;;;;;;;2.13;1.30;;;12.60;99.90;;;;;;5092875;28;20020;-84
2022/07/13 02:24:29;;;;;;;0.38;0.38;;;12.60;99.90;;;;;;5108391;28;20032;-80
2022/07/13 02:26:55;;;;;;;0.90;0.50;;;12.60;99.90;;;;;;5082958;28;20115;-80
2022/07/13 02:29:52;;;;;;;0.22;0.22;;;12.60;99.90;;;;;;5111381;28;20011;-82
2022/07/13 02:32:18;;;;;;;0.38;0.38;;;12.50;99.90;;;;;;5088268;28;20028;-82
2022/07/13 02:34:44;;;;;;;0.30;0.30;;;12.50;99.90;;;;;;5088653;28;20028;-82
2022/07/13 02:37:11;;;;;;;0.25;0.25;;;12.50;99.90;;;;;;5085170;28;20036;-83
2022/07/13 02:39:37;;;;;;;0.38;0.38;;;12.50;99.90;;;;;;5098585;28;20043;-84
2022/07/13 02:42:05;;;;;;;0.30;0.30;;;12.50;99.90;;;;;;5100676;28;20016;-84
2022/07/13 02:44:30;;;;;;;0.35;0.35;;;12.50;99.90;;;;;;5108438;28;20016;-82
2022/07/13 02:46:56;;;;;;;0.85;0.40;;;12.60;99.90;;;;;;5098336;28;20031;-81
2022/07/13 02:49:21;;;;;;;0.30;0.30;;;12.60;99.90;;;;;;5118219;28;20072;-84
2022/07/13 02:51:47;;;;;;;0.95;0.63;;;12.60;99.90;;;;;;5093301;28;20500;-83
2022/07/13 02:54:13;;;;;;;0.40;0.40;;;12.50;99.90;;;;;;5093714;28;20021;-83
2022/07/13 02:56:55;;;;;;;0.50;0.50;;;12.50;99.90;;;;;;5098253;28;20092;-83
2022/07/13 02:59:21;;;;;;;0.30;0.30;;;12.50;99.90;;;;;;5093405;28;20017;-83
2022/07/13 03:01:46;;;;;;;0.70;0.70;;;12.50;99.90;;;;;;5087904;28;20024;-80
2022/07/13 03:04:12;;;;;;;0.30;0.30;;;12.50;99.90;;;;;;5083506;28;20024;-81
2022/07/13 03:06:38;;;;;;;0.30;0.30;;;12.50;99.90;;;;;;5081267;28;20083;-82
2022/07/13 03:09:03;;;;;;;0.38;0.38;;;12.50;99.90;;;;;;5087195;28;20035;-83
2022/07/13 03:11:29;;;;;;;1.33;0.40;;;12.50;99.90;;;;;;5084796;28;20017;-81
2022/07/13 03:13:55;;;;;;;0.50;0.50;;;12.50;99.90;;;;;;5084317;28;20027;-81
2022/07/13 03:16:20;;;;;;;1.60;0.45;;;12.40;99.90;;;;;;5092298;28;20025;-82
2022/07/13 03:18:46;;;;;;;0.30;0.30;;;12.40;99.90;;;;;;5087090;28;20016;-83
2022/07/13 03:21:12;;;;;;;0.93;0.85;;;12.30;99.90;;;;;;5083301;28;20060;-83
2022/07/13 03:23:38;;;;;;;0.88;0.55;;;12.30;99.90;;;;;;5082250;28;20496;-80
2022/07/13 03:26:05;;;;;;;0.73;0.65;;;12.30;99.90;;;;;;5079926;28;20029;-80
2022/07/13 03:28:31;;;;;;;0.50;0.50;;;12.30;99.90;;;;;;5082105;28;20031;-80
2022/07/13 03:30:57;;;;;;;0.32;0.32;;;12.30;99.90;;;;;;5081985;28;20024;-81
2022/07/13 03:33:24;;;;;;;0.63;0.63;;;12.30;99.90;;;;;;5081725;28;20480;-82
2022/07/13 03:35:57;;;;;;;0.30;0.30;;;12.30;99.90;;;;;;5084376;28;21918;-82
2022/07/13 03:38:22;;;;;;;0.40;0.40;;;12.30;99.90;;;;;;5088134;28;20045;-81
2022/07/13 03:40:48;;;;;;;0.82;0.50;;;12.30;99.90;;;;;;5085236;28;20021;-82
2022/07/13 03:43:22;;;;;;;1.73;0.93;;;12.30;99.90;;;;;;5086712;28;20043;-85
2022/07/13 03:45:48;;;;;;;0.40;0.40;;;12.30;99.90;;;;;;5085598;28;20023;-83
2022/07/13 03:48:16;;;;;;;2.72;0.30;;;12.20;99.90;;;;;;5089147;28;20025;-84
2022/07/13 03:50:43;;;;;;;0.80;0.80;;;12.20;99.90;;;;;;5093256;28;20017;-85
2022/07/13 03:53:08;;;;;;;0.40;0.40;;;12.10;99.90;;;;;;5110512;28;20048;-82
2022/07/13 03:55:34;;;;;;;2.03;0.30;;;12.20;99.90;;;;;;5113142;28;20004;-81
2022/07/13 03:58:00;;;;;;;0.45;0.45;;;12.20;99.90;;;;;;5106853;28;20094;-80
2022/07/13 04:00:26;;;;;;;0.93;0.80;;;12.20;99.90;;;;;;5108951;28;20016;-80
2022/07/13 04:02:51;;;;;;;1.55;1.45;;;12.20;99.90;;;;;;5089758;28;20028;-77
2022/07/13 04:05:17;;;;;;;0.38;0.38;;;12.10;99.90;;;;;;5109118;28;20024;-79
2022/07/13 04:07:43;;;;;;;0.40;0.40;;;12.10;99.90;;;;;;5088190;28;20020;-80
2022/07/13 04:10:09;;;;;;;0.25;0.25;;;12.10;99.90;;;;;;5110160;28;20016;-79
2022/07/13 04:12:34;;;;;;;0.63;0.55;;;12.10;99.90;;;;;;5085665;28;20028;-79
2022/07/13 04:15:00;;;;;;;0.50;0.50;;;12.20;99.90;;;;;;5100805;28;20564;-79
2022/07/13 04:17:26;;;;;;;0.55;0.55;;;12.30;99.90;;;;;;5080820;28;20032;-79
2022/07/13 04:19:51;;;;;;;0.20;0.20;;;12.40;99.90;;;;;;5099831;28;20020;-79
2022/07/13 04:22:19;;;;;;;0.20;0.20;;;12.50;99.90;;;;;;5081715;28;20476;-79
2022/07/13 04:24:45;;;;;;;0.88;0.60;;;12.50;99.90;;;;;;5099627;28;20036;-79
2022/07/13 04:27:13;;;;;;;0.47;0.47;;;12.50;99.90;;;;;;5099935;28;20031;-79
2022/07/13 04:29:39;;;;;;;0.30;0.30;;;12.60;99.90;;;;;;5066138;28;20024;-79
2022/07/13 04:32:05;;;;;;;0.47;0.47;;;12.60;99.90;;;;;;5082640;28;20046;-79
2022/07/13 04:34:31;;;;;;;0.75;0.55;;;12.60;99.90;;;;;;5100868;28;20111;-79
2022/07/13 04:36:56;;;;;;;0.50;0.40;;;12.70;99.90;;;;;;5082737;28;20060;-79
2022/07/13 04:39:22;;;;;;;2.15;0.52;;;12.80;99.90;;;;;;5100750;28;20020;-79
2022/07/13 04:41:47;;;;;;;0.43;0.43;;;12.90;99.90;;;;;;5098412;28;20028;-79
2022/07/13 04:44:14;;;;;;;1.65;0.65;;;13.00;99.90;;;;;;5097809;28;20105;-80
2022/07/13 04:46:39;;;;;;;0.43;0.43;;;13.20;99.90;;;;;;5094008;28;20476;-79
2022/07/13 04:49:05;;;;;;;0.80;0.75;;;13.40;99.90;;;;;;5093302;28;20027;-80
2022/07/13 04:51:31;;;;;;;0.63;0.63;;;13.50;99.90;;;;;;5093080;28;20032;-79
2022/07/13 04:53:57;;;;;;;0.50;0.40;;;13.70;99.90;;;;;;5094399;28;20035;-79
2022/07/13 04:56:23;;;;;;;0.57;0.40;;;14.00;99.90;;;;;;5093382;28;20500;-79
2022/07/13 04:58:49;;;;;;;0.25;0.25;;;14.30;99.90;;;;;;5074591;28;20069;-79
2022/07/13 05:01:14;;;;;;;0.25;0.25;;;14.40;99.90;;;;;;5092619;28;20078;-80
2022/07/13 05:03:40;;;;;;;0.28;0.28;;;14.50;99.90;;;;;;5092894;28;20024;-80
2022/07/13 05:06:05;;;;;;;0.47;0.47;;;14.70;99.90;;;;;;5074972;28;20024;-80
2022/07/13 05:08:31;;;;;;;0.13;0.13;;;14.90;99.90;;;;;;5074627;28;20049;-79
2022/07/13 05:10:57;;;;;;;0.40;0.40;;;14.90;99.90;;;;;;5074852;28;20108;-79
2022/07/13 05:13:22;;;;;;;0.20;0.20;;;14.90;99.90;;;;;;5092906;28;20459;-79
2022/07/13 05:15:48;;;;;;;0.32;0.32;;;15.00;99.90;;;;;;5092695;28;20027;-80
2022/07/13 05:18:14;;;;;;;0.20;0.20;;;15.00;99.90;;;;;;5092664;28;20016;-79
2022/07/13 05:20:39;;;;;;;0.32;0.30;;;14.90;99.90;;;;;;5093102;28;20020;-80
2022/07/13 05:23:05;;;;;;;0.25;0.25;;;14.90;99.90;;;;;;5074706;28;20397;-80
2022/07/13 05:25:30;;;;;;;0.65;0.22;;;15.00;99.90;;;;;;5074667;28;20024;-79
2022/07/13 05:27:56;;;;;;;0.30;0.30;;;15.00;99.90;;;;;;5074785;28;20073;-80
2022/07/13 05:30:22;;;;;;;0.30;0.30;;;15.10;99.90;;;;;;5077778;28;20026;-79
2022/07/13 05:32:47;;;;;;;0.40;0.40;;;15.30;99.90;;;;;;5096849;28;20119;-79
2022/07/13 05:35:14;;;;;;;0.40;0.40;;;15.40;99.90;;;;;;5078458;28;20542;-80
2022/07/13 05:37:39;;;;;;;0.40;0.40;;;15.50;99.90;;;;;;5096474;28;20032;-80
2022/07/13 05:40:06;;;;;;;3.30;0.68;;;15.60;99.90;;;;;;5096697;28;20484;-80
2022/07/13 05:42:31;;;;;;;0.80;0.70;;;15.70;99.90;;;;;;5096524;28;20514;-79
2022/07/13 05:44:57;;;;;;;0.30;0.30;;;15.80;99.90;;;;;;5096501;28;20051;-81
2022/07/13 05:47:23;;;;;;;0.40;0.40;;;15.90;99.90;;;;;;5096478;28;20476;-80
2022/07/13 05:49:49;;;;;;;1.35;0.60;;;16.10;99.90;;;;;;5096423;28;20043;-80
2022/07/13 05:52:14;;;;;;;0.70;0.65;;;16.30;99.90;;;;;;5096024;28;20445;-79
2022/07/13 05:54:40;;;;;;;0.40;0.40;;;18.30;99.90;;;;;;5096130;28;20066;-80
2022/07/13 05:57:06;;;;;;;0.20;0.20;;;16.60;99.90;;;;;;5096127;28;20055;-79
2022/07/13 05:59:33;;;;;;;0.32;0.32;;;16.70;99.90;;;;;;5096178;28;20024;-79
2022/07/13 06:01:59;;;;;;;1.52;1.40;;;16.90;99.90;;;;;;5096051;28;20024;-79
2022/07/13 06:04:25;;;;;;;0.30;0.30;;;17.20;99.90;;;;;;5096103;28;20098;-79
2022/07/13 06:06:51;;;;;;;1.33;0.30;;;17.60;99.90;;;;;;5095967;28;20081;-79
2022/07/13 06:09:17;;;;;;;0.20;0.20;;;18.00;99.90;;;;;;5077802;28;20024;-80
2022/07/13 06:11:43;;;;;;;0.25;0.25;;;18.20;99.90;;;;;;5095614;28;20028;-80
2022/07/13 06:14:09;;;;;;;0.20;0.20;;;18.20;99.90;;;;;;5095857;28;20020;-80
2022/07/13 06:16:35;;;;;;;0.43;0.20;;;18.40;99.90;;;;;;5095698;28;20111;-79
2022/07/13 06:19:01;;;;;;;0.10;0.10;;;18.60;99.90;;;;;;5077720;28;20157;-80
2022/07/13 06:21:27;;;;;;;0.30;0.30;;;18.80;99.90;;;;;;5095813;28;20472;-80
2022/07/13 06:23:53;;;;;;;0.30;0.30;;;19.00;99.90;;;;;;5095639;28;20019;-80
2022/07/13 06:26:25;;;;;;;0.30;0.30;;;19.20;99.90;;;;;;5095616;28;20102;-79
2022/07/13 06:28:51;;;;;;;0.15;0.15;;;19.60;99.90;;;;;;5096126;28;20024;-79
2022/07/13 06:31:17;;;;;;;0.30;0.30;;;19.70;99.90;;;;;;5096212;28;20024;-79
2022/07/13 06:33:42;;;;;;;0.20;0.20;;;19.60;99.90;;;;;;5097435;28;20020;-79
2022/07/13 06:36:08;;;;;;;0.20;0.20;;;19.60;99.90;;;;;;5098968;28;20024;-79
2022/07/13 06:38:34;;;;;;;0.35;0.35;;;19.60;99.90;;;;;;5097495;28;20028;-79
2022/07/13 06:41:00;;;;;;;0.32;0.32;;;19.50;99.90;;;;;;5095137;28;20365;-79
2022/07/13 06:43:26;;;;;;;0.40;0.40;;;19.60;99.90;;;;;;5095290;28;20027;-80
2022/07/13 06:45:52;;;;;;;0.35;0.35;;;20.60;99.90;;;;;;5095130;28;20016;-79
2022/07/13 06:48:17;;;;;;;0.50;0.50;;;22.40;99.90;;;;;;5094972;28;20024;-80
2022/07/13 06:50:43;;;;;;;0.20;0.20;;;24.30;99.90;;;;;;5095008;28;20128;-80
2022/07/13 06:53:09;;;;;;;0.30;0.30;;;25.80;90.60;;;;;;5076966;28;20040;-79
2022/07/13 06:55:35;;;;;;;0.13;0.13;;;27.00;73.00;;;;;;5095205;28;20020;-80
2022/07/13 06:58:01;;;;;;;0.80;0.20;;;28.20;65.40;;;;;;5095054;28;20036;-77
2022/07/13 07:00:26;;;;;;;0.63;0.55;;;29.00;62.50;;;;;;5076765;28;20028;-77
2022/07/13 07:02:52;;;;;;;0.10;0.10;;;29.70;59.30;;;;;;5094654;28;20545;-77
2022/07/13 07:05:17;;;;;;;0.40;0.30;;;30.60;56.70;;;;;;5094532;28;20028;-77
2022/07/13 07:07:44;;;;;;;0.22;0.22;;;30.90;55.30;;;;;;5094541;28;20112;-77
2022/07/13 07:10:10;;;;;;;0.38;0.38;;;31.60;54.20;;;;;;5094631;28;20028;-78
2022/07/13 07:12:36;;;;;;;0.20;0.20;;;31.70;53.90;;;;;;5094626;28;20043;-77
2022/07/13 07:15:02;;;;;;;1.75;0.20;;;31.90;52.70;;;;;;5094743;28;20165;-77
2022/07/13 07:17:28;;;;;;;0.85;0.20;;;31.90;52.20;;;;;;5094406;28;20480;-80
2022/07/13 07:20:03;;;;;;;1.33;0.55;;;31.10;51.70;;;;;;5076279;28;20074;-80
2022/07/13 07:22:29;;;;;;;4.75;1.15;;;32.60;50.60;;;;;;5076365;28;20384;-78
2022/07/13 07:24:54;;;;;;;2.33;1.35;;;32.90;50.80;;;;;;5076009;28;20024;-78
2022/07/13 07:27:20;;;;;;;0.57;0.57;;;33.30;50.70;;;;;;5094179;28;20104;-77
2022/07/13 07:29:46;;;;;;;0.50;0.50;;;33.30;50.20;;;;;;5076044;28;20073;-77
2022/07/13 07:32:12;;;;;;;2.33;1.05;;;32.80;49.10;;;;;;5094459;28;20016;-77
2022/07/13 07:34:38;;;;;;;0.30;0.30;;;32.90;50.10;;;;;;5094203;28;20028;-79
2022/07/13 07:37:03;;;;;;;0.50;0.50;;;32.60;48.40;;;;;;5094098;28;20042;-80
2022/07/13 07:39:29;;;;;;;0.38;0.38;;;32.40;50.20;;;;;;5094099;28;20027;-80
2022/07/13 07:41:55;;;;;;;1.50;0.40;;;32.60;49.80;;;;;;5093980;28;20488;-79
2022/07/13 07:44:21;;;;;;;0.10;0.10;;;32.60;50.40;;;;;;5075890;28;20491;-80
2022/07/13 07:46:47;;;;;;;0.43;0.40;;;32.90;49.50;;;;;;5094079;28;20070;-80
2022/07/13 07:49:13;;;;;;;0.30;0.30;;;33.00;48.20;;;;;;5093985;28;20023;-80
2022/07/13 07:51:39;;;;;;;0.50;0.50;;;33.00;47.50;;;;;;5093212;28;20043;-80
2022/07/13 07:54:05;;;;;;;8.60;0.65;;;32.20;47.80;;;;;;5093947;28;20089;-80
2022/07/13 07:56:31;;;;;;;0.22;0.22;;;31.90;48.90;;;;;;5093752;28;20032;-80
2022/07/13 07:58:57;;;;;;;0.32;0.32;;;32.40;49.30;;;;;;5093674;28;20024;-79
2022/07/13 08:01:23;;;;;;;0.35;0.35;;;32.80;48.40;;;;;;5093722;28;20032;-80
2022/07/13 08:03:49;;;;;;;0.28;0.28;;;33.20;47.40;;;;;;5093728;28;20035;-79
2022/07/13 08:06:16;;;;;;;4.30;0.65;;;32.10;48.40;;;;;;5093868;28;20414;-79
2022/07/13 08:08:42;;;;;;;0.85;0.43;;;32.40;48.40;;;;;;5093694;28;20035;-79
2022/07/13 08:11:09;;;;;;;0.20;0.20;;;32.80;49.20;;;;;;5075501;28;20028;-81
2022/07/13 08:13:36;;;;;;;0.10;0.10;;;33.20;49.10;;;;;;5093765;28;20032;-80
2022/07/13 08:16:02;;;;;;;2.58;0.30;;;33.70;47.80;;;;;;5075315;28;20073;-81
2022/07/13 08:18:28;;;;;;;0.30;0.30;;;34.00;47.00;;;;;;5075262;28;20423;-85
2022/07/13 08:20:54;;;;;;;0.95;0.50;;;33.90;47.10;;;;;;5093976;28;20030;-84
2022/07/13 08:26:04;;;;;;;0.10;0.10;;;33.20;45.60;;;;;;5094498;28;20039;-90
2022/07/13 08:28:30;;;;;;;0.28;0.28;;;32.40;47.00;;;;;;5094899;28;20020;-92
2022/07/13 08:30:56;;;;;;;0.13;0.10;;;31.80;48.50;;;;;;5076148;28;20451;-89
2022/07/13 08:38:34;;;;;;;0.75;0.17;;;31.70;48.40;;;;;;5076340;28;20028;-88
2022/07/13 08:38:53;;;;;;;0.10;0.10;;;32.30;47.80;;;;;;5054205;28;20082;-89
2022/07/13 08:41:19;;;;;;;0.00;0.00;;;33.10;47.30;;;;;;5076430;28;20024;-85
2022/07/13 08:43:45;;;;;;;0.20;0.20;;;33.80;45.90;;;;;;5094988;28;20035;-87
2022/07/13 08:46:11;;;;;;;0.13;0.13;;;33.70;45.80;;;;;;5076221;28;20114;-86
2022/07/13 08:48:38;;;;;;;0.22;0.20;;;33.30;46.30;;;;;;5075389;28;20503;-87
2022/07/13 08:51:05;;;;;;;0.70;0.30;;;31.40;45.60;;;;;;5093246;28;20065;-86
2022/07/13 08:53:32;;;;;;;0.10;0.10;;;30.60;48.20;;;;;;5074896;28;20059;-81
2022/07/13 08:55:58;;;;;;;0.17;0.10;;;30.00;51.60;;;;;;5093180;28;20199;-80
2022/07/13 08:58:24;;;;;;;0.35;0.25;;;30.20;49.40;;;;;;5075084;28;20103;-81
2022/07/13 09:00:50;;;;;;;0.40;0.40;;;30.70;49.90;;;;;;5075078;28;20024;-82
2022/07/13 09:03:16;;;;;;;0.08;0.08;;;31.40;47.10;;;;;;5093243;28;20024;-81
2022/07/13 09:05:42;;;;;;;0.17;0.10;;;31.70;46.90;;;;;;5078985;28;20050;-83
2022/07/13 09:08:10;;;;;;;1.15;0.75;;;30.40;48.50;;;;;;5097331;28;20024;-79
2022/07/13 09:10:57;;;;;;;0.10;0.10;;;29.70;49.00;;;;;;5079184;28;20023;-81
2022/07/13 09:13:45;;;;;;;0.45;0.45;;;30.20;49.80;;;;;;5079146;28;20027;-81
2022/07/13 09:16:25;;;;;;;0.35;0.35;;;30.00;50.20;;;;;;5097585;28;20034;-80
2022/07/13 09:18:54;;;;;;;0.00;0.00;;;30.40;50.00;;;;;;5079280;28;20122;-81
2022/07/13 09:21:22;;;;;;;0.10;0.10;;;30.80;48.20;;;;;;5078999;28;20024;-82
2022/07/13 09:23:59;;;;;;;0.00;0.00;;;30.30;47.90;;;;;;5078743;28;20024;-81
2022/07/13 09:26:41;;;;;;;0.10;0.10;;;30.60;48.80;;;;;;5078732;28;20127;-82
2022/07/13 09:29:07;;;;;;;0.10;0.10;;;30.00;48.10;;;;;;5078530;28;20032;-80
2022/07/13 09:31:53;;;;;;;0.20;0.20;;;29.80;50.10;;;;;;5078529;28;20028;-81
2022/07/13 09:34:51;;;;;;;0.22;0.22;;;29.80;49.20;;;;;;5096884;28;20024;-81
2022/07/13 09:37:19;;;;;;;0.22;0.20;;;30.10;49.70;;;;;;5091395;28;20043;-81
2022/07/13 09:40:06;;;;;;;0.65;0.52;;;30.10;50.00;;;;;;5096688;28;20043;-82
2022/07/13 09:42:42;;;;;;;6.20;1.73;;;29.40;51.40;;;;;;5096948;28;20031;-81
2022/07/13 09:47:56;;;;;;;0.30;0.20;;;29.30;51.90;;;;;;5096322;28;20019;-80
2022/07/13 09:50:23;;;;;;;0.10;0.10;;;29.40;51.20;;;;;;5096505;28;20031;-84
2022/07/13 09:52:52;;;;;;;0.40;0.32;;;29.40;52.30;;;;;;5078045;28;20059;-84
2022/07/13 09:55:20;;;;;;;;;;;29.10;49.70;;;;;;5097133;28;20052;-81
2022/07/13 09:58:07;;;;;;;0.73;0.73;;;29.60;49.40;;;;;;5078123;28;19916;-84
2022/07/13 10:00:33;;;;;;;0.22;0.22;;;30.70;50.30;;;;;;5096039;28;20078;-80
2022/07/13 10:02:59;;;;;;;0.60;0.20;;;30.90;47.90;;;;;;5077712;28;20024;-80
2022/07/13 10:05:25;;;;;;;0.25;0.25;;;30.70;48.00;;;;;;5096028;28;20086;-80
2022/07/13 10:07:52;;;;;;;0.10;0.10;;;30.90;47.50;;;;;;5077753;28;20472;-79
2022/07/13 10:10:21;;;;;;;0.82;0.30;;;31.30;47.10;;;;;;5096023;28;20020;-76
2022/07/13 10:12:47;;;;;;;;;;;31.70;47.30;;;;;;5096363;28;20486;-76
2022/07/13 10:15:13;;;;;;;0.20;0.20;;;31.50;47.10;;;;;;5095548;28;20046;-82
2022/07/13 10:17:40;;;;;;;0.77;0.50;;;31.10;48.20;;;;;;5095849;28;20032;-79
2022/07/13 10:20:13;;;;;;;0.17;0.17;;;31.50;47.00;;;;;;5095815;28;20024;-82
2022/07/13 10:22:48;;;;;;;0.22;0.22;;;31.80;46.10;;;;;;5078465;28;20075;-80
2022/07/13 10:25:16;;;;;;;0.10;0.10;;;31.30;46.30;;;;;;5077850;28;20028;-80
2022/07/13 10:27:43;;;;;;;4.63;1.88;;;31.60;47.40;;;;;;5095637;28;20065;-76
2022/07/13 10:30:21;;;;;;;0.68;0.52;;;31.20;47.60;;;;;;5095730;28;20031;-76
2022/07/13 10:32:47;;;;;;;0.10;0.10;;;31.00;47.10;;;;;;5095638;28;20099;-76
2022/07/13 10:35:20;;;;;;;0.40;0.40;;;31.10;45.40;;;;;;5096014;28;20120;-86
2022/07/13 10:37:58;;;;;;;0.93;0.50;;;30.70;46.60;;;;;;5077657;28;20036;-85
2022/07/13 10:40:28;;;;;;;0.22;0.22;;;30.90;46.30;;;;;;5095609;28;20507;-81
2022/07/13 10:42:54;;;;;;;0.30;0.30;;;;;;;;;;5095525;28;20469;-85
2022/07/13 10:45:32;;;;;;;0.20;0.20;;;31.80;44.80;;;;;;5078386;28;20024;-86
2022/07/13 10:47:58;;;;;;;2.10;0.38;;;32.00;47.00;;;;;;5078193;28;20121;-88
2022/07/13 10:50:26;;;;;;;0.47;0.20;;;32.70;46.10;;;;;;5077404;28;20047;-84
2022/07/13 10:52:52;;;;;;;0.20;0.20;;;32.90;44.90;;;;;;5077297;28;20151;-84
2022/07/13 10:55:20;;;;;;;0.00;0.00;;;33.00;45.50;;;;;;5077795;28;20024;-85
2022/07/13 10:57:46;;;;;;;0.10;0.10;;;33.00;42.20;;;;;;5077716;28;20047;-83
2022/07/13 11:00:22;;;;;;;0.40;0.40;;;32.90;45.30;;;;;;5077366;28;20028;-82
2022/07/13 11:03:03;;;;;;;0.20;0.20;;;32.60;42.80;;;;;;5077906;28;20028;-90
2022/07/13 11:05:33;;;;;;;0.50;0.50;;;33.30;44.60;;;;;;5077783;28;20118;-82
2022/07/13 11:08:13;;;;;;;0.75;0.75;;;34.00;43.40;;;;;;5077173;28;20063;-81
2022/07/13 11:10:39;;;;;;;1.55;0.43;;;34.40;41.30;;;;;;5077014;28;20552;-85
2022/07/13 11:13:09;;;;;;;0.55;0.47;;;35.00;41.60;;;;;;5076971;28;20052;-82
2022/07/13 11:15:49;;;;;;;0.20;0.20;;;35.10;39.00;;;;;;5077319;28;20016;-85
2022/07/13 11:18:36;;;;;;;0.10;0.10;;;34.50;39.20;;;;;;5077070;28;20396;-82
2022/07/13 11:21:08;;;;;;;0.10;0.10;;;34.50;40.10;;;;;;5077184;28;20047;-80
2022/07/13 11:26:55;;;;;;;0.35;0.35;;;34.10;40.90;;;;;;5094240;28;20039;-84
2022/07/13 11:29:45;;;;;;;0.00;0.00;;;35.00;39.50;;;;;;5077056;28;20016;-86
2022/07/13 11:32:12;;;;;;;0.22;0.17;;;35.40;37.80;;;;;;5076849;28;20020;-81
2022/07/13 11:34:38;;;;;;;0.55;0.30;;;;;;;;;;5076603;28;20024;-82
2022/07/13 11:37:04;;;;;;;0.17;0.10;;;35.50;38.20;;;;;;5094456;28;20032;-78
2022/07/13 11:39:33;;;;;;;0.35;0.35;;;36.30;37.70;;;;;;5094202;28;20091;-81
2022/07/13 11:41:59;;;;;;;;;;;36.30;38.60;;;;;;5079701;28;20051;-84
2022/07/13 11:44:27;;;;;;;1.35;0.20;;;36.60;38.40;;;;;;5078340;28;19953;-81
2022/07/13 11:46:54;;;;;;;0.10;0.10;;;35.90;39.30;;;;;;5076164;28;20024;-80
2022/07/13 11:49:20;;;;;;;0.40;0.40;;;35.70;39.40;;;;;;5094256;28;20031;-84
2022/07/13 11:51:46;;;;;;;0.00;0.00;;;36.50;38.50;;;;;;5075587;28;20109;-82
2022/07/13 11:54:19;;;;;;;0.22;0.22;;;36.50;36.00;;;;;;5075791;28;20345;-80
2022/07/13 11:56:50;;;;;;;0.10;0.10;;;35.40;37.60;;;;;;5075697;28;20032;-81
2022/07/13 11:59:42;;;;;;;0.30;0.30;;;35.20;39.90;;;;;;5075955;28;20080;-81
2022/07/13 12:02:09;;;;;;;0.10;0.10;;;34.40;37.50;;;;;;5075947;28;20024;-85
2022/07/13 12:04:46;;;;;;;0.15;0.15;;;34.40;39.70;;;;;;5093981;28;20024;-84
2022/07/13 12:07:19;;;;;;;0.22;0.22;;;35.20;37.50;;;;;;5094768;28;20081;-82
2022/07/13 12:09:57;;;;;;;0.10;0.10;;;35.80;37.70;;;;;;5075766;28;20023;-82
2022/07/13 12:12:29;;;;;;;0.30;0.30;;;35.10;37.90;;;;;;5093724;28;20024;-81
2022/07/13 12:14:56;;;;;;;0.10;0.10;;;35.30;40.00;;;;;;5093648;28;20027;-82
2022/07/13 12:17:23;;;;;;;0.13;0.13;;;35.60;38.90;;;;;;5075437;28;20036;-82
2022/07/13 12:19:50;;;;;;;0.10;0.10;;;35.80;39.20;;;;;;5075442;28;20020;-81
2022/07/13 12:22:21;;;;;;;0.10;0.10;;;36.00;39.00;;;;;;5075512;28;20032;-81
2022/07/13 12:24:47;;;;;;;0.08;0.08;;;36.10;38.20;;;;;;5094480;28;20100;-81
2022/07/13 12:27:29;;;;;;;1.23;1.10;;;36.10;38.40;;;;;;5100173;28;20027;-83
2022/07/13 12:30:09;;;;;;;0.10;0.10;;;36.60;38.40;;;;;;5080718;28;20021;-78
2022/07/13 12:32:55;;;;;;;0.22;0.22;;;37.30;35.30;;;;;;5082581;28;20027;-81
2022/07/13 12:35:21;;;;;;;0.28;0.28;;;37.30;35.10;;;;;;5079997;28;20069;-81
2022/07/13 12:37:53;;;;;;;0.10;0.10;;;37.90;35.30;;;;;;5093069;28;20044;-82
2022/07/13 12:40:41;;;;;;;0.17;0.17;;;38.40;34.20;;;;;;5075434;28;20035;-83
2022/07/13 12:43:32;;;;;;;6.63;0.47;;;39.10;33.80;;;;;;5093252;28;20024;-82
2022/07/13 12:46:03;;;;;;;0.00;0.00;;;40.00;32.50;;;;;;5093232;28;20532;-78
2022/07/13 12:48:34;;;;;;;0.00;0.00;;;39.70;32.30;;;;;;5075396;28;20043;-83
2022/07/13 12:51:08;;;;;;;0.10;0.10;;;38.00;34.20;;;;;;5093273;28;20051;-81
2022/07/13 12:53:45;;;;;;;0.20;0.20;;;37.20;33.90;;;;;;5092996;28;20090;-79
2022/07/13 12:56:12;;;;;;;0.20;0.15;;;36.60;33.10;;;;;;5075105;28;20434;-84
2022/07/13 12:58:45;;;;;;;0.10;0.10;;;36.50;34.20;;;;;;5093309;28;20385;-83
2022/07/13 13:01:26;;;;;;;0.00;0.00;;;36.50;33.80;;;;;;5093386;28;20031;-82
2022/07/13 13:03:55;;;;;;;0.10;0.10;;;35.90;34.30;;;;;;5093354;28;20349;-86
2022/07/13 13:06:21;;;;;;;0.03;0.03;;;;;;;;;;5093048;28;20502;-82